Terminal Aerodrome Forecast
Issued by NWS

Home | Current Version | Previous Version | Text Only | Print | Product List | Glossary On
Versions: 1 2 3 4 5 6 7 8 9 10 11 12 13
000
FTUS43 KMQT 231738
TAFSAW
TAF
KSAW 231738Z 2318/2418 27011G20KT P6SM BKN070
     FM232200 28011G24KT P6SM BKN070
     FM240100 29008KT P6SM SCT110
     FM241100 31006KT P6SM BKN050
     FM241600 34006KT P6SM BKN030=

USA.gov is the U.S. government's official web portal to all federal, state and local government web resources and services.